createdAt,value
2022-12-20T00:04:28.154Z,97933.25
2022-12-20T00:09:29.939Z,97929.06
2022-12-20T00:14:31.957Z,97929.63
2022-12-20T00:19:33.654Z,97936.34
2022-12-20T00:24:35.633Z,97921.00
2022-12-20T00:29:37.397Z,97921.75
2022-12-20T00:34:39.090Z,97923.16
2022-12-20T00:39:40.804Z,97907.38
2022-12-20T00:44:42.465Z,97923.22
2022-12-20T00:49:44.531Z,97917.09
2022-12-20T00:54:46.249Z,97896.50
2022-12-20T00:59:48.324Z,97902.97
2022-12-20T01:04:50.348Z,97917.19
2022-12-20T01:09:52.175Z,97932.50
2022-12-20T01:14:53.927Z,97932.78
2022-12-20T01:19:55.673Z,97933.09
2022-12-20T01:24:57.750Z,97921.94
2022-12-20T01:29:59.436Z,97917.53
2022-12-20T01:35:01.298Z,97898.31
2022-12-20T01:40:03.411Z,97880.50
2022-12-20T01:45:13.136Z,97888.56
2022-12-20T01:50:14.827Z,97889.13
2022-12-20T01:55:26.515Z,97884.66
2022-12-20T02:00:29.462Z,97888.91
2022-12-20T02:05:39.150Z,97909.91
2022-12-20T02:11:14.689Z,97914.66
2022-12-20T02:16:24.887Z,97914.28
2022-12-20T02:22:15.419Z,97892.41
2022-12-20T02:27:19.848Z,97888.28
2022-12-20T02:32:58.515Z,97894.34
2022-12-20T02:38:03.776Z,97898.53
2022-12-20T02:43:28.712Z,97885.72
2022-12-20T02:48:33.641Z,97874.56
2022-12-20T02:53:37.768Z,97866.13
2022-12-20T02:59:17.284Z,97853.28
2022-12-20T03:04:25.825Z,97857.19
2022-12-20T03:09:28.775Z,97842.25
2022-12-20T03:14:30.611Z,97842.63
2022-12-20T03:19:35.328Z,97832.88
2022-12-20T03:24:37.049Z,97823.13
2022-12-20T03:29:44.585Z,97824.88
2022-12-20T03:34:47.179Z,97821.72
2022-12-20T03:39:52.795Z,97845.53
2022-12-20T03:44:55.412Z,97846.91
2022-12-20T03:49:59.624Z,97836.78
2022-12-20T03:55:03.703Z,97830.53
2022-12-20T04:00:14.064Z,97824.50
2022-12-20T04:05:21.939Z,97825.72
2022-12-20T04:10:23.666Z,97821.63
2022-12-20T04:15:25.611Z,97826.16
2022-12-20T04:20:28.036Z,97813.00
2022-12-20T04:25:43.731Z,97812.34
2022-12-20T04:30:46.440Z,97799.94
2022-12-20T04:35:54.573Z,97807.25
2022-12-20T04:40:58.605Z,97796.50
2022-12-20T04:46:03.060Z,97786.66
2022-12-20T04:51:04.966Z,97781.88
2022-12-20T04:56:07.540Z,97785.50
2022-12-20T05:01:09.653Z,97791.22
2022-12-20T05:06:20.062Z,97779.47
2022-12-20T05:11:22.516Z,97773.50
2022-12-20T05:16:26.152Z,97774.03
2022-12-20T05:21:47.224Z,97761.13
2022-12-20T05:26:49.627Z,97748.31
2022-12-20T05:31:53.758Z,97734.66
2022-12-20T05:36:56.042Z,97732.53
2022-12-20T05:42:00.811Z,97733.88
2022-12-20T05:47:03.458Z,97735.81
2022-12-20T05:52:08.406Z,97744.16
2022-12-20T05:57:12.435Z,97766.28
2022-12-20T06:02:16.187Z,97773.91
2022-12-20T06:07:19.636Z,97756.13
2022-12-20T06:12:24.814Z,97770.69
2022-12-20T06:17:27.353Z,97767.22
2022-12-20T06:22:29.707Z,97761.88
2022-12-20T06:27:32.293Z,97756.59
2022-12-20T06:32:41.918Z,97744.66
2022-12-20T06:37:45.296Z,97732.59
2022-12-20T06:42:49.431Z,97747.72
2022-12-20T06:47:52.977Z,97755.50
2022-12-20T06:52:55.515Z,97736.00
2022-12-20T06:57:59.488Z,97733.00
2022-12-20T07:03:02.143Z,97730.53
2022-12-20T07:08:04.834Z,97726.06
2022-12-20T07:13:06.748Z,97730.22
2022-12-20T07:18:08.612Z,97717.72
2022-12-20T07:23:10.358Z,97729.75
2022-12-20T07:28:11.999Z,97736.44
2022-12-20T07:33:13.748Z,97736.97
2022-12-20T07:38:15.634Z,97742.22
2022-12-20T07:43:17.367Z,97749.34
2022-12-20T07:48:21.842Z,97746.84
2022-12-20T07:53:25.673Z,97739.81
2022-12-20T07:58:29.159Z,97756.88
2022-12-20T08:03:36.765Z,97763.44
2022-12-20T08:08:42.407Z,97771.31
2022-12-20T08:13:46.779Z,97764.66
2022-12-20T08:18:49.522Z,97761.00
2022-12-20T08:23:51.952Z,97762.72
2022-12-20T08:28:56.746Z,97767.47
2022-12-20T08:33:59.156Z,97745.50
2022-12-20T08:39:05.212Z,97740.38
2022-12-20T08:44:07.071Z,97725.88
2022-12-20T08:49:08.754Z,97729.47
2022-12-20T08:54:10.621Z,97717.25
2022-12-20T08:59:12.250Z,97721.06
2022-12-20T09:04:15.344Z,97713.22
2022-12-20T09:09:18.110Z,97713.69
2022-12-20T09:14:20.134Z,97716.88
2022-12-20T09:19:24.746Z,97681.03
2022-12-20T09:24:26.957Z,97674.63
2022-12-20T09:29:35.317Z,97660.78
2022-12-20T09:34:37.834Z,97652.28
2022-12-20T09:39:39.617Z,97653.34
2022-12-20T09:44:42.799Z,97676.66
2022-12-20T09:49:49.281Z,97692.69
2022-12-20T09:55:09.482Z,97690.25
2022-12-20T10:00:17.499Z,97687.97
2022-12-20T10:05:44.034Z,97680.47
2022-12-20T10:11:10.069Z,97666.34
2022-12-20T10:16:50.183Z,97651.34
2022-12-20T10:22:18.165Z,97645.13
2022-12-20T10:27:21.366Z,97641.19
2022-12-20T10:32:24.206Z,97616.44
2022-12-20T10:37:25.982Z,97612.69
2022-12-20T10:42:41.369Z,97618.50
2022-12-20T10:47:46.108Z,97612.28
2022-12-20T10:53:24.159Z,97599.38
2022-12-20T10:58:27.321Z,97595.81
2022-12-20T11:03:29.785Z,97582.50
2022-12-20T11:08:47.668Z,97583.50
2022-12-20T11:13:54.140Z,97571.41
2022-12-20T11:19:01.752Z,97565.56
2022-12-20T11:24:12.180Z,97555.03
2022-12-20T11:29:28.542Z,97531.06
2022-12-20T11:34:42.756Z,97510.69
2022-12-20T11:40:16.326Z,97502.56
2022-12-20T11:45:42.854Z,97507.72
2022-12-20T11:51:15.925Z,97495.16
2022-12-20T11:56:30.996Z,97493.28
2022-12-20T12:01:38.632Z,97503.00
2022-12-20T12:07:13.711Z,97497.81
2022-12-20T12:12:29.507Z,97490.91
2022-12-20T12:17:45.308Z,97486.28
2022-12-20T12:22:51.126Z,97479.63
2022-12-20T12:27:52.934Z,97464.19
2022-12-20T12:33:07.403Z,97460.47
2022-12-20T12:38:26.232Z,97461.66
2022-12-20T12:43:46.269Z,97461.84
2022-12-20T12:48:55.103Z,97462.00
2022-12-20T12:54:10.185Z,97461.41
2022-12-20T12:59:34.968Z,97471.97
2022-12-20T13:05:10.887Z,97468.22
2022-12-20T13:10:19.002Z,97469.69
2022-12-20T13:15:20.732Z,97471.97
2022-12-20T13:20:28.464Z,97459.66
2022-12-20T13:25:31.264Z,97451.97
2022-12-20T13:30:33.491Z,97442.91
2022-12-20T13:35:55.071Z,97430.06
2022-12-20T13:41:00.246Z,97421.31
2022-12-20T13:46:14.673Z,97410.13
2022-12-20T13:51:25.515Z,97416.09
2022-12-20T13:56:27.336Z,97419.56
2022-12-20T14:01:31.230Z,97439.13
2022-12-20T14:06:33.734Z,97428.31
2022-12-20T14:11:46.747Z,97420.78
2022-12-20T14:16:48.528Z,97425.78
2022-12-20T14:21:50.391Z,97418.63
2022-12-20T14:26:53.739Z,97402.38
2022-12-20T14:31:55.632Z,97385.06
2022-12-20T14:37:30.343Z,97374.91
2022-12-20T14:42:37.123Z,97347.84
2022-12-20T14:47:51.477Z,97359.09
2022-12-20T14:52:53.332Z,97388.31
2022-12-20T14:57:56.747Z,97397.47
2022-12-20T15:03:18.775Z,97414.38
2022-12-20T15:08:37.508Z,97385.88
2022-12-20T15:13:39.075Z,97385.88
2022-12-20T15:18:40.960Z,97384.97
2022-12-20T15:23:47.630Z,97366.56
2022-12-20T15:28:49.758Z,97373.72
2022-12-20T15:33:51.590Z,97392.53
2022-12-20T15:39:12.202Z,97394.97
2022-12-20T15:44:21.609Z,97371.22
2022-12-20T15:49:25.966Z,97368.19
2022-12-20T15:54:33.736Z,97361.81
2022-12-20T16:04:58.720Z,97368.47
2022-12-20T16:10:00.740Z,97362.63
2022-12-20T16:15:02.469Z,97375.69
2022-12-20T16:20:04.950Z,97381.72
2022-12-20T16:25:06.922Z,97369.63
2022-12-20T16:30:09.201Z,97379.44
2022-12-20T16:35:27.510Z,97387.13
2022-12-20T16:40:32.052Z,97385.44
2022-12-20T16:45:34.657Z,97374.91
2022-12-20T16:50:41.525Z,97356.84
2022-12-20T16:55:43.301Z,97345.66
2022-12-20T17:00:45.205Z,97343.22
2022-12-20T17:05:46.995Z,97320.31
2022-12-20T17:10:49.036Z,97310.94
2022-12-20T17:15:50.922Z,97306.94
2022-12-20T17:20:52.669Z,97299.63
2022-12-20T17:25:54.866Z,97313.72
2022-12-20T17:30:57.916Z,97320.97
2022-12-20T17:36:02.896Z,97320.09
2022-12-20T17:41:05.825Z,97331.72
2022-12-20T17:46:08.068Z,97345.69
2022-12-20T17:51:16.027Z,97348.16
2022-12-20T17:56:25.197Z,97341.25
2022-12-20T18:01:29.922Z,97337.91
2022-12-20T18:06:34.300Z,97358.75
2022-12-20T18:11:36.171Z,97354.66
2022-12-20T18:16:41.073Z,97352.81
2022-12-20T18:21:43.006Z,97344.72
2022-12-20T18:26:45.151Z,97338.28
2022-12-20T18:31:46.936Z,97331.88
2022-12-20T18:36:48.852Z,97353.38
2022-12-20T18:41:50.551Z,97339.84
2022-12-20T18:46:52.206Z,97347.34
2022-12-20T18:51:53.841Z,97307.00
2022-12-20T18:56:56.969Z,97322.03
2022-12-20T19:01:58.928Z,97314.94
2022-12-20T19:07:00.707Z,97306.25
2022-12-20T19:12:03.927Z,97306.59
2022-12-20T19:17:05.819Z,97300.75
2022-12-20T19:22:07.595Z,97296.53
2022-12-20T19:27:10.525Z,97277.03
2022-12-20T19:32:12.429Z,97279.88
2022-12-20T19:37:14.086Z,97264.16
2022-12-20T19:42:24.934Z,97240.50
2022-12-20T19:47:27.356Z,97250.03
2022-12-20T19:52:29.544Z,97237.06
2022-12-20T19:57:31.240Z,97211.84
2022-12-20T20:02:33.121Z,97236.19
2022-12-20T20:07:34.920Z,97216.59
2022-12-20T20:12:38.323Z,97240.72
2022-12-20T20:17:39.996Z,97234.88
2022-12-20T20:22:42.645Z,97234.00
2022-12-20T20:27:44.937Z,97231.91
2022-12-20T20:32:47.023Z,97226.06
2022-12-20T20:37:48.673Z,97219.97
2022-12-20T20:42:51.630Z,97223.97
2022-12-20T20:47:53.288Z,97254.59
2022-12-20T20:52:55.206Z,97231.47
2022-12-20T20:57:56.910Z,97230.56
2022-12-20T21:02:59.654Z,97231.63
2022-12-20T21:08:01.595Z,97220.63
2022-12-20T21:13:04.664Z,97210.09
2022-12-20T21:18:09.128Z,97202.50
2022-12-20T21:23:11.808Z,97211.81
2022-12-20T21:28:19.376Z,97224.94
2022-12-20T21:33:22.884Z,97209.31
2022-12-20T21:38:24.623Z,97221.97
2022-12-20T21:43:26.584Z,97216.13
2022-12-20T21:48:29.646Z,97206.06
2022-12-20T21:53:33.142Z,97228.97
2022-12-20T21:58:34.981Z,97227.78
2022-12-20T22:03:38.017Z,97244.22
2022-12-20T22:08:39.825Z,97250.66
2022-12-20T22:13:42.544Z,97253.13
2022-12-20T22:18:48.143Z,97237.34
2022-12-20T22:23:50.447Z,97255.84
2022-12-20T22:28:55.032Z,97257.44
2022-12-20T22:33:57.869Z,97236.03
2022-12-20T22:39:00.119Z,97245.69
2022-12-20T22:44:03.028Z,97244.69
2022-12-20T22:49:04.860Z,97259.50
2022-12-20T22:54:06.711Z,97256.78
2022-12-20T22:59:08.402Z,97270.75
2022-12-20T23:04:10.070Z,97262.28
2022-12-20T23:09:11.732Z,97237.16
2022-12-20T23:14:38.000Z,97237.13
2022-12-20T23:19:58.576Z,97212.72
2022-12-20T23:25:00.741Z,97198.78
2022-12-20T23:30:04.705Z,97210.81
2022-12-20T23:35:12.277Z,97213.31
2022-12-20T23:40:16.317Z,97212.88
2022-12-20T23:45:18.050Z,97196.25
2022-12-20T23:50:19.909Z,97199.84
2022-12-20T23:55:21.962Z,97183.78
